createdAt,value
2017-02-11T11:45:22.983Z,4600
2017-02-11T11:46:22.935Z,4516
2017-02-11T11:47:22.911Z,4676
2017-02-11T11:48:23.259Z,4708
2017-02-11T11:49:23.270Z,4592
2017-02-11T11:50:23.189Z,4256
2017-02-11T11:51:23.158Z,3744
2017-02-11T11:52:22.762Z,3516
2017-02-11T11:53:23.097Z,3600
2017-02-11T11:54:22.352Z,3852
2017-02-11T11:55:23.053Z,4092
2017-02-11T11:56:23.011Z,4216
2017-02-11T11:57:22.984Z,4180
2017-02-11T11:58:22.966Z,4204
2017-02-11T11:59:22.930Z,4296
2017-02-11T12:00:22.905Z,4396
2017-02-11T12:01:22.881Z,4788
2017-02-11T12:02:22.844Z,5624
2017-02-11T12:03:22.433Z,6120
2017-02-11T12:04:22.439Z,5828
2017-02-11T12:05:22.781Z,5552
2017-02-11T12:06:22.796Z,6068
2017-02-11T12:07:22.330Z,6496
2017-02-11T12:08:22.301Z,6604
2017-02-11T12:09:22.669Z,6656
2017-02-11T12:10:22.638Z,6240
2017-02-11T12:11:22.622Z,5752
2017-02-11T12:12:21.828Z,5568
2017-02-11T12:13:22.487Z,5488
2017-02-11T12:14:22.535Z,5648
2017-02-11T12:15:22.513Z,5844
2017-02-11T12:16:22.490Z,6040
2017-02-11T12:17:21.690Z,6796
2017-02-11T12:18:22.444Z,7172
2017-02-11T12:19:22.408Z,7108
2017-02-11T12:20:22.004Z,6980
2017-02-11T12:21:21.593Z,6800
2017-02-11T12:22:21.953Z,6640
2017-02-11T12:23:22.355Z,6800
2017-02-11T12:24:22.286Z,6996
2017-02-11T12:25:21.918Z,6868
2017-02-11T12:26:21.917Z,6584
2017-02-11T12:27:21.822Z,6420
2017-02-11T12:28:22.185Z,6600
2017-02-11T12:29:21.777Z,6760
2017-02-11T12:30:21.758Z,7244
2017-02-11T12:31:22.170Z,7232
2017-02-11T12:32:22.379Z,6720
2017-02-11T12:33:22.354Z,7156
2017-02-11T12:34:22.026Z,7768
2017-02-11T12:35:21.626Z,7448
2017-02-11T12:36:21.982Z,6888
2017-02-11T12:37:21.598Z,6044
2017-02-11T12:38:21.553Z,5436
2017-02-11T12:39:21.919Z,4796
2017-02-11T12:40:21.891Z,4508
2017-02-11T12:41:21.861Z,4356
2017-02-11T12:42:21.454Z,4436
2017-02-11T12:43:21.813Z,4592
2017-02-11T12:44:21.792Z,4460
2017-02-11T12:45:21.762Z,4288
2017-02-11T12:46:21.019Z,4408
2017-02-11T12:47:21.718Z,5272
2017-02-11T12:48:21.334Z,5980
2017-02-11T12:49:21.302Z,6404
2017-02-11T12:50:21.642Z,6836
2017-02-11T12:51:21.612Z,7272
2017-02-11T12:52:21.580Z,7696
2017-02-11T12:53:21.233Z,7868
2017-02-11T12:54:21.149Z,7632
2017-02-11T12:55:20.856Z,7216
2017-02-11T12:56:21.103Z,6960
2017-02-11T12:57:21.463Z,6536
2017-02-11T12:58:21.441Z,5996
2017-02-11T12:59:21.084Z,5372
2017-02-11T13:00:20.631Z,5112
2017-02-11T13:01:20.983Z,4900
2017-02-11T13:02:20.957Z,4764
2017-02-11T13:03:21.312Z,4804
2017-02-11T13:04:21.296Z,4760
2017-02-11T13:05:20.887Z,4824
2017-02-11T13:06:21.243Z,4804
2017-02-11T13:07:21.233Z,4892
2017-02-11T13:08:20.434Z,5148
2017-02-11T13:09:21.168Z,5796
2017-02-11T13:10:21.142Z,5960
2017-02-11T13:11:21.127Z,6240
2017-02-11T13:12:20.712Z,6236
2017-02-11T13:13:21.072Z,6088
2017-02-11T13:14:20.663Z,6008
2017-02-11T13:15:21.030Z,5724
2017-02-11T13:16:20.634Z,6148
2017-02-11T13:17:20.579Z,6640
2017-02-11T13:18:20.180Z,7088
2017-02-11T13:19:20.975Z,7376
2017-02-11T13:20:20.515Z,7628
2017-02-11T13:21:20.875Z,7796
2017-02-11T13:22:20.866Z,8312
2017-02-11T13:23:20.446Z,9300
2017-02-11T13:24:20.801Z,11048
2017-02-11T13:25:20.783Z,12252
2017-02-11T13:26:20.757Z,11568
2017-02-11T13:27:20.722Z,10224
2017-02-11T13:28:20.698Z,9588
2017-02-11T13:29:20.297Z,9052
2017-02-11T13:30:20.310Z,8112
2017-02-11T13:31:20.245Z,7128
2017-02-11T13:32:20.611Z,6380
2017-02-11T13:33:20.194Z,5668
2017-02-11T13:34:20.167Z,5392
2017-02-11T13:35:20.143Z,5212
2017-02-11T13:36:20.809Z,5048
2017-02-11T13:37:20.478Z,4960
2017-02-11T13:38:20.510Z,4872
2017-02-11T13:39:20.434Z,4736
2017-02-11T13:40:20.414Z,4604
2017-02-11T13:41:19.997Z,4492
2017-02-11T13:42:19.967Z,4468
2017-02-11T13:43:20.331Z,4200
2017-02-11T13:44:19.910Z,4020
2017-02-11T13:45:19.515Z,3936
2017-02-11T13:46:20.264Z,3960
2017-02-11T13:47:20.230Z,3776
2017-02-11T13:48:20.263Z,3700
2017-02-11T13:49:19.797Z,3708
2017-02-11T13:50:19.096Z,3692
2017-02-11T13:51:20.126Z,3580
2017-02-11T13:52:19.818Z,3524
2017-02-11T13:53:20.135Z,3516
2017-02-11T13:54:20.064Z,3540
2017-02-11T13:55:19.646Z,3656
2017-02-11T13:56:19.999Z,3820
2017-02-11T13:57:19.970Z,3988
2017-02-11T13:58:19.971Z,4120
2017-02-11T13:59:19.544Z,4352
2017-02-11T14:00:19.520Z,4492
2017-02-11T14:01:19.928Z,4452
2017-02-11T14:02:19.849Z,4368
2017-02-11T14:03:20.130Z,4364
2017-02-11T14:04:19.801Z,4340
2017-02-11T14:05:19.392Z,4324
2017-02-11T14:06:19.790Z,4248
2017-02-11T14:07:19.722Z,4204
2017-02-11T14:08:19.700Z,4132
2017-02-11T14:09:19.779Z,4112
2017-02-11T14:10:19.257Z,4140
2017-02-11T14:11:19.624Z,4124
2017-02-11T14:12:19.585Z,4120
2017-02-11T14:13:19.574Z,4116
2017-02-11T14:14:19.153Z,4136
2017-02-11T14:15:19.526Z,4124
2017-02-11T14:16:19.167Z,4124
2017-02-11T14:17:19.479Z,4144
2017-02-11T14:18:19.451Z,4136
2017-02-11T14:19:19.032Z,4120
2017-02-11T14:20:19.392Z,4108
2017-02-11T14:21:18.982Z,4112
2017-02-11T14:22:19.341Z,4072
2017-02-11T14:23:19.320Z,4052
2017-02-11T14:24:19.295Z,4024
2017-02-11T14:25:19.261Z,4020
2017-02-11T14:26:18.481Z,4008
2017-02-11T14:27:18.824Z,3996
2017-02-11T14:28:19.208Z,3976
2017-02-11T14:29:19.187Z,3968
2017-02-11T14:30:19.183Z,3924
2017-02-11T14:31:19.110Z,3844
2017-02-11T14:32:18.716Z,3800
2017-02-11T14:33:18.673Z,3748
2017-02-11T14:34:18.272Z,3756
2017-02-11T14:35:19.067Z,3724
2017-02-11T14:36:18.605Z,3740
2017-02-11T14:37:18.965Z,3744
2017-02-11T14:38:18.175Z,3732
2017-02-11T14:39:18.908Z,3740
2017-02-11T14:40:18.891Z,3712
2017-02-11T14:41:18.093Z,3736
2017-02-11T14:42:18.877Z,3696
2017-02-11T14:43:18.803Z,3580
2017-02-11T14:44:18.792Z,3616
2017-02-11T14:45:18.751Z,3532
2017-02-11T14:46:18.401Z,3436
2017-02-11T14:47:18.711Z,3392
2017-02-11T14:48:18.675Z,3316
2017-02-11T14:49:18.658Z,3228
2017-02-11T14:50:18.245Z,3148
2017-02-11T14:51:18.226Z,3036
2017-02-11T14:52:18.200Z,2888
2017-02-11T14:53:18.557Z,2756
2017-02-11T14:54:18.154Z,2708
2017-02-11T14:55:18.130Z,2684
2017-02-11T14:56:18.101Z,2672
2017-02-11T14:57:18.095Z,2648
2017-02-11T14:58:18.682Z,2612
2017-02-11T14:59:18.464Z,2568
2017-02-11T15:00:18.379Z,2556
2017-02-11T15:01:17.957Z,2544
2017-02-11T15:02:17.985Z,2544
2017-02-11T15:03:17.919Z,2560
2017-02-11T15:04:18.281Z,2524
2017-02-11T15:05:17.491Z,2468
2017-02-11T15:06:17.073Z,2416
2017-02-11T15:07:18.203Z,2340
2017-02-11T15:08:17.410Z,2272
2017-02-11T15:09:18.150Z,2232
2017-02-11T15:10:17.360Z,2208
2017-02-11T15:11:18.096Z,2184
2017-02-11T15:12:16.960Z,2168
2017-02-11T15:13:18.035Z,2188
2017-02-11T15:14:18.069Z,2172
2017-02-11T15:15:17.997Z,2140
2017-02-11T15:16:18.286Z,2112
2017-02-11T15:17:17.932Z,2112
2017-02-11T15:18:17.154Z,2124
2017-02-11T15:19:17.914Z,2120
2017-02-11T15:20:17.882Z,2160
2017-02-11T15:21:17.845Z,2248
2017-02-11T15:22:17.822Z,2256
2017-02-11T15:23:18.046Z,2192
2017-02-11T15:24:17.760Z,2100
2017-02-11T15:25:17.750Z,2036
2017-02-11T15:26:17.726Z,2036
2017-02-11T15:27:17.740Z,2032
2017-02-11T15:28:17.281Z,1976
2017-02-11T15:29:17.254Z,1876
2017-02-11T15:30:16.848Z,1820
2017-02-11T15:31:16.832Z,1756
2017-02-11T15:32:17.239Z,1716
2017-02-11T15:33:17.793Z,1684
2017-02-11T15:34:17.509Z,1640
2017-02-11T15:35:17.114Z,1580
2017-02-11T15:36:17.073Z,1492
2017-02-11T15:37:17.487Z,1444
2017-02-11T15:38:17.420Z,1476
2017-02-11T15:39:17.375Z,1476
2017-02-11T15:40:17.407Z,1404
2017-02-11T15:41:17.331Z,1316
2017-02-11T15:42:17.315Z,1256
2017-02-11T15:43:16.909Z,1208
2017-02-11T15:44:17.244Z,1192
2017-02-11T15:45:16.455Z,1204
2017-02-11T15:46:17.196Z,1220
2017-02-11T15:47:16.461Z,1236
2017-02-11T15:48:16.768Z,1260
2017-02-11T15:49:16.738Z,1284
2017-02-11T15:50:17.096Z,1328
2017-02-11T15:51:17.089Z,1304
2017-02-11T15:52:16.668Z,1224
2017-02-11T15:53:17.024Z,1120
2017-02-11T15:54:17.000Z,1052
2017-02-11T15:55:16.589Z,1004
2017-02-11T15:56:16.620Z,964
2017-02-11T15:57:16.923Z,928
2017-02-11T15:58:16.502Z,908
2017-02-11T15:59:16.859Z,880
2017-02-11T16:00:16.068Z,860
2017-02-11T16:01:16.430Z,844
2017-02-11T16:02:16.787Z,828
2017-02-11T16:03:16.773Z,820
2017-02-11T16:04:16.736Z,816
2017-02-11T16:05:16.323Z,804
2017-02-11T16:06:16.683Z,792
2017-02-11T16:07:16.274Z,776
2017-02-11T16:08:16.623Z,764
2017-02-11T16:09:16.293Z,756
2017-02-11T16:10:16.248Z,736
2017-02-11T16:11:16.172Z,716
2017-02-11T16:12:16.520Z,696
2017-02-11T16:13:16.493Z,676
2017-02-11T16:14:16.472Z,656
2017-02-11T16:15:16.449Z,636
2017-02-11T16:16:16.426Z,616
2017-02-11T16:17:16.394Z,604
2017-02-11T16:18:15.980Z,588
2017-02-11T16:19:15.975Z,568
2017-02-11T16:20:15.540Z,544
2017-02-11T16:21:15.545Z,516
2017-02-11T16:22:16.265Z,500
2017-02-11T16:23:15.465Z,464
2017-02-11T16:24:16.212Z,436
2017-02-11T16:25:15.854Z,404
2017-02-11T16:26:16.151Z,372
2017-02-11T16:27:15.747Z,344
2017-02-11T16:28:15.724Z,312
2017-02-11T16:29:15.688Z,292
2017-02-11T16:30:16.091Z,268
2017-02-11T16:31:16.087Z,252
2017-02-11T16:32:15.620Z,236
2017-02-11T16:33:15.582Z,216
2017-02-11T16:34:15.606Z,192
2017-02-11T16:35:15.540Z,172
2017-02-11T16:36:15.511Z,156
2017-02-11T16:37:15.877Z,140
2017-02-11T16:38:15.098Z,124
2017-02-11T16:39:15.845Z,112
2017-02-11T16:40:16.109Z,104
2017-02-11T16:41:15.770Z,92
2017-02-11T16:42:15.343Z,80
2017-02-11T16:43:15.702Z,72
2017-02-11T16:44:15.677Z,68
2017-02-11T16:45:15.653Z,60
2017-02-11T16:46:15.627Z,52
2017-02-11T16:47:15.601Z,44
2017-02-11T16:48:15.189Z,40
2017-02-11T16:49:15.411Z,32
2017-02-11T16:50:15.520Z,28
2017-02-11T16:51:15.495Z,24
2017-02-11T16:52:15.515Z,20
2017-02-11T16:53:15.500Z,20
2017-02-11T16:54:15.406Z,16
2017-02-11T16:55:15.421Z,12
2017-02-11T16:56:15.360Z,12
2017-02-11T16:57:14.950Z,8
2017-02-11T16:58:14.961Z,8
2017-02-11T16:59:14.894Z,4
2017-02-11T17:00:14.890Z,8
2017-02-11T17:01:14.075Z,8
2017-02-11T17:02:15.203Z,4
2017-02-11T17:03:15.180Z,4
2017-02-11T17:04:15.147Z,4
2017-02-11T17:05:15.121Z,0
2017-02-11T17:06:15.107Z,0
2017-02-11T17:07:15.064Z,4
2017-02-11T17:08:14.293Z,0
2017-02-11T17:09:15.013Z,0
2017-02-11T17:10:14.598Z,0
2017-02-11T17:11:14.958Z,0
2017-02-11T17:12:14.941Z,0
2017-02-11T17:13:14.143Z,0
2017-02-11T17:14:14.871Z,0
2017-02-11T17:15:14.868Z,0
2017-02-11T17:16:14.827Z,0
2017-02-11T17:17:14.438Z,0
2017-02-11T17:18:14.391Z,0
2017-02-11T17:19:14.753Z,0
2017-02-11T17:20:14.723Z,0
2017-02-11T17:21:14.704Z,0
2017-02-11T17:22:14.321Z,0
2017-02-11T17:23:14.645Z,0
2017-02-11T17:24:14.231Z,0
2017-02-11T17:25:14.208Z,0
2017-02-11T17:26:14.409Z,0
2017-02-11T17:27:14.534Z,0
2017-02-11T17:28:14.515Z,0
2017-02-11T17:29:14.101Z,0
2017-02-11T17:30:14.449Z,0
2017-02-11T17:31:14.418Z,0
2017-02-11T17:32:14.388Z,0
2017-02-11T17:33:13.990Z,0
2017-02-11T17:34:14.357Z,0
2017-02-11T17:35:14.788Z,0
2017-02-11T17:36:13.911Z,0
2017-02-11T17:37:13.881Z,0
2017-02-11T17:38:14.228Z,0
2017-02-11T17:39:13.875Z,0
2017-02-11T17:40:13.793Z,0
2017-02-11T17:41:14.146Z,0
2017-02-11T17:42:13.747Z,0
2017-02-11T17:43:13.727Z,0
2017-02-11T17:44:13.745Z,0
2017-02-11T17:45:13.702Z,0
2017-02-11T17:46:13.622Z,0
2017-02-11T17:47:14.036Z,0
2017-02-11T17:48:13.583Z,0
2017-02-11T17:49:13.567Z,0
2017-02-11T17:50:13.968Z,0
2017-02-11T17:51:13.885Z,0
2017-02-11T17:52:13.543Z,0
2017-02-11T17:53:13.460Z,0
2017-02-11T17:54:13.792Z,0
2017-02-11T17:55:13.764Z,0
2017-02-11T17:56:13.753Z,0
2017-02-11T17:57:13.344Z,0
2017-02-11T17:58:13.683Z,0
2017-02-11T17:59:13.274Z,0
2017-02-11T18:00:13.660Z,0
2017-02-11T18:01:13.665Z,0
2017-02-11T18:02:13.590Z,0
2017-02-11T18:03:13.554Z,0
2017-02-11T18:04:13.574Z,0
2017-02-11T18:05:13.114Z,0
2017-02-11T18:06:13.464Z,0
2017-02-11T18:07:13.442Z,0
2017-02-11T18:08:12.651Z,0
2017-02-11T18:09:13.391Z,0
2017-02-11T18:10:12.983Z,0
2017-02-11T18:11:12.572Z,0
2017-02-11T18:12:12.920Z,0
2017-02-11T18:13:12.940Z,0
2017-02-11T18:14:13.244Z,0
2017-02-11T18:15:12.471Z,0
2017-02-11T18:16:12.448Z,0
2017-02-11T18:17:12.400Z,0
2017-02-11T18:18:12.814Z,0
2017-02-11T18:19:13.173Z,0
2017-02-11T18:20:13.097Z,0
2017-02-11T18:21:13.362Z,0
2017-02-11T18:22:12.709Z,0
2017-02-11T18:23:12.622Z,0
2017-02-11T18:24:12.973Z,0
2017-02-11T18:25:12.981Z,0
2017-02-11T18:26:12.175Z,0
2017-02-11T18:27:12.952Z,0
2017-02-11T18:28:12.545Z,0
2017-02-11T18:29:12.856Z,0
2017-02-11T18:30:12.062Z,0
2017-02-11T18:31:12.401Z,0
2017-02-11T18:32:12.777Z,0
2017-02-11T18:33:12.743Z,0
2017-02-11T18:34:11.556Z,0
2017-02-11T18:35:12.690Z,0
2017-02-11T18:36:12.665Z,0
2017-02-11T18:37:12.641Z,0
2017-02-11T18:38:12.655Z,0
2017-02-11T18:39:12.196Z,0
2017-02-11T18:40:12.554Z,0
2017-02-11T18:41:12.535Z,0
2017-02-11T18:42:12.113Z,0
2017-02-11T18:43:12.089Z,0
2017-02-11T18:44:12.360Z,0
2017-02-11T18:45:11.654Z,0
2017-02-11T18:46:12.013Z,0
2017-02-11T18:47:11.585Z,0
2017-02-11T18:48:11.938Z,0
2017-02-11T18:49:11.923Z,0
2017-02-11T18:50:12.192Z,0
2017-02-11T18:51:12.181Z,0
2017-02-11T18:52:11.840Z,0
2017-02-11T18:53:12.210Z,0
2017-02-11T18:54:11.749Z,0
2017-02-11T18:55:11.775Z,0
2017-02-11T18:56:11.356Z,0
2017-02-11T18:57:11.710Z,0
2017-02-11T18:58:12.063Z,0
2017-02-11T18:59:11.671Z,0
2017-02-11T19:00:11.640Z,0
2017-02-11T19:01:12.000Z,0
2017-02-11T19:02:11.957Z,0
2017-02-11T19:03:11.935Z,0
2017-02-11T19:04:11.899Z,0
2017-02-11T19:05:11.869Z,0
2017-02-11T19:06:11.072Z,0
2017-02-11T19:07:11.813Z,0
2017-02-11T19:08:11.815Z,0
2017-02-11T19:09:11.759Z,0
2017-02-11T19:10:11.340Z,0
2017-02-11T19:11:11.711Z,0
2017-02-11T19:12:11.686Z,0
2017-02-11T19:13:11.650Z,0
2017-02-11T19:14:11.288Z,0
2017-02-11T19:15:11.595Z,0
2017-02-11T19:16:11.190Z,0
2017-02-11T19:17:11.158Z,0
2017-02-11T19:18:11.520Z,0
2017-02-11T19:19:11.116Z,0
2017-02-11T19:20:11.087Z,0
2017-02-11T19:21:11.052Z,0
2017-02-11T19:22:11.027Z,0
2017-02-11T19:23:11.387Z,0
2017-02-11T19:24:11.023Z,0
2017-02-11T19:25:10.952Z,0
2017-02-11T19:26:11.303Z,0
2017-02-11T19:27:10.900Z,0
2017-02-11T19:28:10.862Z,0
2017-02-11T19:29:10.838Z,0
2017-02-11T19:30:10.863Z,0
2017-02-11T19:31:10.781Z,0
2017-02-11T19:32:11.134Z,0
2017-02-11T19:33:11.118Z,0
2017-02-11T19:34:11.083Z,0
2017-02-11T19:35:10.289Z,0
2017-02-11T19:36:10.260Z,0
2017-02-11T19:37:10.227Z,0
2017-02-11T19:38:10.985Z,0
2017-02-11T19:39:10.960Z,0
2017-02-11T19:40:10.582Z,0
2017-02-11T19:41:10.516Z,0
2017-02-11T19:42:10.868Z,0
2017-02-11T19:43:10.864Z,0
2017-02-11T19:44:10.475Z,0
2017-02-11T19:45:10.779Z,0
2017-02-11T19:46:10.811Z,0
2017-02-11T19:47:10.025Z,0
2017-02-11T19:48:09.959Z,0
2017-02-11T19:49:10.297Z,0
2017-02-11T19:50:10.661Z,0
2017-02-11T19:51:10.621Z,0
2017-02-11T19:52:10.215Z,0
2017-02-11T19:53:10.575Z,0
2017-02-11T19:54:09.388Z,0
2017-02-11T19:55:09.754Z,0
2017-02-11T19:56:10.499Z,0
2017-02-11T19:57:10.470Z,0
2017-02-11T19:58:10.439Z,0
2017-02-11T19:59:09.697Z,0
2017-02-11T20:00:10.382Z,0
2017-02-11T20:01:10.360Z,0
2017-02-11T20:02:09.946Z,0
2017-02-11T20:03:10.298Z,0
2017-02-11T20:04:10.272Z,0
2017-02-11T20:05:09.883Z,0
2017-02-11T20:06:09.103Z,0
2017-02-11T20:07:10.200Z,0
2017-02-11T20:08:10.169Z,0
2017-02-11T20:09:10.134Z,0
2017-02-11T20:10:10.104Z,0
2017-02-11T20:11:09.712Z,0
2017-02-11T20:12:09.286Z,0
2017-02-11T20:13:10.027Z,0
2017-02-11T20:14:09.230Z,0
2017-02-11T20:15:09.981Z,0
2017-02-11T20:16:09.941Z,0
2017-02-11T20:17:09.530Z,0
2017-02-11T20:18:09.898Z,0
2017-02-11T20:19:09.098Z,0
2017-02-11T20:20:09.833Z,0
2017-02-11T20:21:09.477Z,0
2017-02-11T20:22:09.411Z,0
2017-02-11T20:23:09.827Z,0
2017-02-11T20:24:09.734Z,0
2017-02-11T20:25:08.930Z,0
2017-02-11T20:26:09.685Z,0
2017-02-11T20:27:08.966Z,0
2017-02-11T20:28:09.260Z,0
2017-02-11T20:29:09.254Z,0
2017-02-11T20:30:09.191Z,0
2017-02-11T20:31:09.880Z,0
2017-02-11T20:32:09.538Z,0
2017-02-11T20:33:09.497Z,0
2017-02-11T20:34:09.079Z,0
2017-02-11T20:35:09.571Z,0
2017-02-11T20:36:09.104Z,0
2017-02-11T20:37:09.382Z,0
2017-02-11T20:38:09.361Z,0
2017-02-11T20:39:08.945Z,0
2017-02-11T20:40:08.923Z,0
2017-02-11T20:41:08.497Z,0
2017-02-11T20:42:09.250Z,0
2017-02-11T20:43:09.219Z,0
2017-02-11T20:44:08.860Z,0
2017-02-11T20:45:09.169Z,0
2017-02-11T20:46:09.198Z,0
2017-02-11T20:47:08.769Z,0
2017-02-11T20:48:09.096Z,0
2017-02-11T20:49:08.277Z,0
2017-02-11T20:50:08.258Z,0
2017-02-11T20:51:08.667Z,0
2017-02-11T20:52:08.612Z,0
2017-02-11T20:53:08.556Z,0
2017-02-11T20:54:08.577Z,0
2017-02-11T20:55:08.493Z,0
2017-02-11T20:56:08.467Z,0
2017-02-11T20:57:08.069Z,0
2017-02-11T20:58:08.808Z,0
2017-02-11T20:59:08.795Z,0
2017-02-11T21:00:08.742Z,0
2017-02-11T21:01:08.371Z,0
2017-02-11T21:02:08.692Z,0
2017-02-11T21:03:08.664Z,0
2017-02-11T21:04:08.260Z,0
2017-02-11T21:05:08.650Z,0
2017-02-11T21:06:08.183Z,0
2017-02-11T21:07:08.559Z,0
2017-02-11T21:08:08.134Z,0
2017-02-11T21:09:08.110Z,0
2017-02-11T21:10:08.465Z,0
2017-02-11T21:11:07.667Z,0
2017-02-11T21:12:07.645Z,0
2017-02-11T21:13:07.662Z,0
2017-02-11T21:14:08.357Z,0
2017-02-11T21:15:08.332Z,0
2017-02-11T21:16:08.319Z,0
2017-02-11T21:17:08.301Z,0
2017-02-11T21:18:07.531Z,0
2017-02-11T21:19:08.394Z,0
2017-02-11T21:20:07.426Z,0
2017-02-11T21:21:08.386Z,0
2017-02-11T21:22:07.748Z,0
2017-02-11T21:23:07.748Z,0
2017-02-11T21:24:07.330Z,0
2017-02-11T21:25:08.055Z,0
2017-02-11T21:26:08.077Z,0
2017-02-11T21:27:08.018Z,0
2017-02-11T21:28:07.593Z,0
2017-02-11T21:29:07.956Z,0
2017-02-11T21:30:07.971Z,0
2017-02-11T21:31:07.520Z,0
2017-02-11T21:32:07.541Z,0
2017-02-11T21:33:07.887Z,0
2017-02-11T21:34:07.431Z,0
2017-02-11T21:35:07.066Z,0
2017-02-11T21:36:07.801Z,0
2017-02-11T21:37:06.958Z,0
2017-02-11T21:38:07.694Z,0
2017-02-11T21:39:07.282Z,0
2017-02-11T21:40:07.639Z,0
2017-02-11T21:41:07.690Z,0
2017-02-11T21:42:07.579Z,0
2017-02-11T21:43:07.242Z,0
2017-02-11T21:44:07.540Z,0
2017-02-11T21:45:07.522Z,0
2017-02-11T21:46:06.773Z,0
2017-02-11T21:47:07.464Z,0
2017-02-11T21:48:07.039Z,0
2017-02-11T21:49:07.014Z,0
2017-02-11T21:50:07.383Z,0
2017-02-11T21:51:06.967Z,0
2017-02-11T21:52:07.318Z,0
2017-02-11T21:53:07.366Z,0
2017-02-11T21:54:07.257Z,0
2017-02-11T21:55:06.474Z,0
2017-02-11T21:56:06.439Z,0
2017-02-11T21:57:07.177Z,0
2017-02-11T21:58:06.370Z,0
2017-02-11T21:59:06.737Z,0
2017-02-11T22:00:06.714Z,0
2017-02-11T22:01:06.681Z,0
2017-02-11T22:02:07.037Z,0
2017-02-11T22:03:06.241Z,0
2017-02-11T22:04:06.588Z,0
2017-02-11T22:05:06.961Z,0
2017-02-11T22:06:06.938Z,0
2017-02-11T22:07:06.133Z,0
2017-02-11T22:08:06.487Z,0
2017-02-11T22:09:06.508Z,0
2017-02-11T22:10:06.433Z,0
2017-02-11T22:11:06.398Z,0
2017-02-11T22:12:06.746Z,0
2017-02-11T22:13:06.737Z,0
2017-02-11T22:14:06.322Z,0
2017-02-11T22:15:06.673Z,0
2017-02-11T22:16:06.658Z,0
2017-02-11T22:17:06.645Z,0
2017-02-11T22:18:06.583Z,0
2017-02-11T22:19:06.564Z,0
2017-02-11T22:20:06.545Z,0
2017-02-11T22:21:06.132Z,0
2017-02-11T22:22:06.100Z,0
2017-02-11T22:23:05.682Z,0
2017-02-11T22:24:06.063Z,0
2017-02-11T22:25:06.391Z,0
2017-02-11T22:26:05.979Z,0
2017-02-11T22:27:06.372Z,0
2017-02-11T22:28:05.926Z,0
2017-02-11T22:29:05.570Z,0
2017-02-11T22:30:06.254Z,0
2017-02-11T22:31:06.228Z,0
2017-02-11T22:32:05.444Z,0
2017-02-11T22:33:06.883Z,0
2017-02-11T22:34:05.383Z,0
2017-02-11T22:35:05.342Z,0
2017-02-11T22:36:05.709Z,0
2017-02-11T22:37:06.067Z,0
2017-02-11T22:38:06.035Z,0
2017-02-11T22:39:06.114Z,0
2017-02-11T22:40:05.656Z,0
2017-02-11T22:41:05.962Z,0
2017-02-11T22:42:05.927Z,0
2017-02-11T22:43:05.955Z,0
2017-02-11T22:44:05.884Z,0
2017-02-11T22:45:05.852Z,0
2017-02-11T22:46:05.812Z,0
2017-02-11T22:47:05.406Z,0
2017-02-11T22:48:05.766Z,0
2017-02-11T22:49:04.966Z,0
2017-02-11T22:50:04.934Z,0
2017-02-11T22:51:06.138Z,0
2017-02-11T22:52:05.271Z,0
2017-02-11T22:53:05.271Z,0
2017-02-11T22:54:05.207Z,0
2017-02-11T22:55:05.229Z,0
2017-02-11T22:56:05.156Z,0
2017-02-11T22:57:05.524Z,0
2017-02-11T22:58:05.104Z,0
2017-02-11T22:59:05.465Z,0
2017-02-11T23:00:05.046Z,0
2017-02-11T23:01:05.027Z,0
2017-02-11T23:02:04.992Z,0
2017-02-11T23:03:05.657Z,0
2017-02-11T23:04:05.325Z,0
2017-02-11T23:05:04.912Z,0
2017-02-11T23:06:05.260Z,0
2017-02-11T23:07:05.290Z,0
2017-02-11T23:08:04.826Z,0
2017-02-11T23:09:04.853Z,0
2017-02-11T23:10:05.155Z,0
2017-02-11T23:11:05.132Z,0
2017-02-11T23:12:04.713Z,0
2017-02-11T23:13:05.073Z,0
2017-02-11T23:14:05.053Z,0
2017-02-11T23:15:05.023Z,0
2017-02-11T23:16:04.604Z,0
2017-02-11T23:17:04.972Z,0
2017-02-11T23:18:04.553Z,0
2017-02-11T23:19:04.521Z,0
2017-02-11T23:20:04.499Z,0
2017-02-11T23:21:04.848Z,0
2017-02-11T23:22:04.837Z,0
2017-02-11T23:23:04.799Z,0
2017-02-11T23:24:04.378Z,0
2017-02-11T23:25:04.790Z,0
2017-02-11T23:26:04.326Z,0
2017-02-11T23:27:04.300Z,0
2017-02-11T23:28:04.265Z,0
2017-02-11T23:29:04.631Z,0
2017-02-11T23:30:04.619Z,0
2017-02-11T23:31:04.183Z,0
2017-02-11T23:32:04.202Z,0
2017-02-11T23:33:04.512Z,0
2017-02-11T23:34:04.106Z,0
2017-02-11T23:35:04.465Z,0
2017-02-11T23:36:04.056Z,0
2017-02-11T23:37:04.028Z,0
2017-02-11T23:38:04.299Z,0
2017-02-11T23:39:04.351Z,0
2017-02-11T23:40:04.043Z,0
2017-02-11T23:41:04.300Z,0
2017-02-11T23:42:03.886Z,0
2017-02-11T23:43:04.246Z,0
2017-02-11T23:44:04.216Z,0
2017-02-11T23:45:04.198Z,0
2017-02-11T23:46:04.210Z,0
2017-02-11T23:47:03.799Z,0
2017-02-11T23:48:03.728Z,0
2017-02-11T23:49:03.302Z,0
2017-02-11T23:50:04.053Z,0
2017-02-11T23:51:04.013Z,0
2017-02-11T23:52:03.987Z,0
2017-02-11T23:53:03.583Z,0
2017-02-11T23:54:03.550Z,0
2017-02-11T23:55:03.921Z,0
2017-02-11T23:56:03.885Z,0
2017-02-11T23:57:03.850Z,0
2017-02-11T23:58:03.834Z,0
2017-02-11T23:59:03.798Z,0
